Sharon, Connecticut
Current Conditions -  °F | °C
As of 6:18 PM on Wednesday 26 Nov 2014 (Local Time) from KPOU Reporting Station
Light Snow Light Snow  
Wind Chill: 26°   Ceiling: 900
Heat Index: 34°   Visibility: 2.5mi
Dew Point: 31°   Wind: 10mph
Humidity: 89%   Direction: 360°N
Pressure: 29.86"   Gusts: NA
Location:  41.88°N, 73.48°W
Report Text: KPOU 262318Z AUTO 36009KT 2 1/2SM -SN BR BKN009 OVC014 01/M01 A2986 RMK AO2 P0001 T00111006 TSNO
Loading
Personal Weather Stations






























Interactive Weather Map New forecast layout! Learn more

10-Day Weather Forecast

Advertisements
Track Severe Weather on mobile